sensor_id;sensor_type;location;lat;lon;timestamp;noise_LAeq;noise_LA_min;noise_LA_max;noise_LA01;noise_LA95
70740;Laerm;58330;51.888;11.052;2023-03-24T00:01:12;34.11;32.82;35.48;;
70740;Laerm;58330;51.888;11.052;2023-03-24T00:03:39;34.08;32.59;35.54;;
70740;Laerm;58330;51.888;11.052;2023-03-24T00:06:09;34.11;32.69;35.45;;
70740;Laerm;58330;51.888;11.052;2023-03-24T00:08:38;34.08;32.86;35.72;;
70740;Laerm;58330;51.888;11.052;2023-03-24T00:11:07;34.08;32.72;35.39;;
70740;Laerm;58330;51.888;11.052;2023-03-24T00:13:34;34.09;32.79;35.48;;
70740;Laerm;58330;51.888;11.052;2023-03-24T00:16:02;34.11;32.83;35.45;;
70740;Laerm;58330;51.888;11.052;2023-03-24T00:18:28;34.12;32.81;35.64;;
70740;Laerm;58330;51.888;11.052;2023-03-24T00:20:57;34.10;32.85;35.45;;
70740;Laerm;58330;51.888;11.052;2023-03-24T00:23:24;34.11;32.68;35.47;;
70740;Laerm;58330;51.888;11.052;2023-03-24T00:25:57;34.16;32.74;35.99;;
70740;Laerm;58330;51.888;11.052;2023-03-24T00:28:26;34.14;32.71;35.34;;
70740;Laerm;58330;51.888;11.052;2023-03-24T00:30:52;34.13;32.68;37.04;;
70740;Laerm;58330;51.888;11.052;2023-03-24T00:33:19;34.13;32.76;36.86;;
70740;Laerm;58330;51.888;11.052;2023-03-24T00:35:45;34.15;32.81;35.43;;
70740;Laerm;58330;51.888;11.052;2023-03-24T00:38:13;34.14;32.77;37.29;;
70740;Laerm;58330;51.888;11.052;2023-03-24T00:40:43;34.13;32.85;37.31;;
70740;Laerm;58330;51.888;11.052;2023-03-24T00:43:09;34.12;32.93;35.39;;
70740;Laerm;58330;51.888;11.052;2023-03-24T00:45:37;34.13;32.74;36.39;;
70740;Laerm;58330;51.888;11.052;2023-03-24T00:48:09;34.14;32.87;35.76;;
70740;Laerm;58330;51.888;11.052;2023-03-24T00:50:36;34.14;32.77;35.55;;
70740;Laerm;58330;51.888;11.052;2023-03-24T00:53:02;34.14;32.81;35.48;;
70740;Laerm;58330;51.888;11.052;2023-03-24T00:55:30;34.18;32.89;35.57;;
70740;Laerm;58330;51.888;11.052;2023-03-24T00:57:57;34.16;32.81;35.51;;
70740;Laerm;58330;51.888;11.052;2023-03-24T01:00:25;34.17;32.79;35.48;;
70740;Laerm;58330;51.888;11.052;2023-03-24T01:02:53;34.19;32.74;35.64;;
70740;Laerm;58330;51.888;11.052;2023-03-24T01:05:20;34.23;32.63;36.07;;
70740;Laerm;58330;51.888;11.052;2023-03-24T01:07:46;34.47;32.87;57.65;;
70740;Laerm;58330;51.888;11.052;2023-03-24T01:10:16;34.23;32.90;36.00;;
70740;Laerm;58330;51.888;11.052;2023-03-24T01:12:44;34.23;32.96;36.02;;
70740;Laerm;58330;51.888;11.052;2023-03-24T01:15:12;34.20;32.47;36.13;;
70740;Laerm;58330;51.888;11.052;2023-03-24T01:17:39;34.19;32.89;35.90;;
70740;Laerm;58330;51.888;11.052;2023-03-24T01:20:06;34.16;32.79;36.26;;
70740;Laerm;58330;51.888;11.052;2023-03-24T01:22:35;34.32;32.98;36.49;;
70740;Laerm;58330;51.888;11.052;2023-03-24T01:25:04;34.43;32.95;37.10;;
70740;Laerm;58330;51.888;11.052;2023-03-24T01:27:31;34.36;32.69;36.86;;
70740;Laerm;58330;51.888;11.052;2023-03-24T01:29:59;34.39;33.09;36.70;;
70740;Laerm;58330;51.888;11.052;2023-03-24T01:32:26;34.46;32.65;37.36;;
70740;Laerm;58330;51.888;11.052;2023-03-24T01:34:52;34.44;32.94;37.07;;
70740;Laerm;58330;51.888;11.052;2023-03-24T01:37:19;34.50;32.93;36.65;;
70740;Laerm;58330;51.888;11.052;2023-03-24T01:39:47;34.42;32.99;36.52;;
70740;Laerm;58330;51.888;11.052;2023-03-24T01:42:15;34.42;33.04;36.61;;
70740;Laerm;58330;51.888;11.052;2023-03-24T01:44:44;34.37;32.95;36.39;;
70740;Laerm;58330;51.888;11.052;2023-03-24T01:47:12;34.38;32.99;36.24;;
70740;Laerm;58330;51.888;11.052;2023-03-24T01:49:40;34.34;32.83;36.60;;
70740;Laerm;58330;51.888;11.052;2023-03-24T01:52:09;34.38;32.96;36.87;;
70740;Laerm;58330;51.888;11.052;2023-03-24T01:54:37;34.39;32.94;36.66;;
70740;Laerm;58330;51.888;11.052;2023-03-24T01:57:06;34.39;32.86;36.71;;
70740;Laerm;58330;51.888;11.052;2023-03-24T01:59:35;34.43;32.79;36.83;;
70740;Laerm;58330;51.888;11.052;2023-03-24T02:02:03;34.43;32.90;37.36;;
70740;Laerm;58330;51.888;11.052;2023-03-24T02:04:33;34.49;33.19;37.77;;
70740;Laerm;58330;51.888;11.052;2023-03-24T02:07:04;34.63;33.03;37.98;;
70740;Laerm;58330;51.888;11.052;2023-03-24T02:09:33;34.74;33.13;38.38;;
70740;Laerm;58330;51.888;11.052;2023-03-24T02:11:59;34.69;33.10;37.86;;
70740;Laerm;58330;51.888;11.052;2023-03-24T02:14:27;34.99;33.23;38.53;;
70740;Laerm;58330;51.888;11.052;2023-03-24T02:16:57;34.92;33.23;39.53;;
70740;Laerm;58330;51.888;11.052;2023-03-24T02:22:38;35.59;32.77;58.31;;
70740;Laerm;58330;51.888;11.052;2023-03-24T02:25:13;39.45;32.91;61.01;;
70740;Laerm;58330;51.888;11.052;2023-03-24T02:27:49;40.82;32.92;60.72;;
70740;Laerm;58330;51.888;11.052;2023-03-24T02:30:22;39.95;32.86;61.44;;
70740;Laerm;58330;51.888;11.052;2023-03-24T02:38:32;38.22;33.49;59.74;;
70740;Laerm;58330;51.888;11.052;2023-03-24T02:41:06;36.97;33.16;42.05;;
70740;Laerm;58330;51.888;11.052;2023-03-24T02:43:36;36.15;33.13;43.20;;
70740;Laerm;58330;51.888;11.052;2023-03-24T02:46:09;35.20;32.86;42.58;;
70740;Laerm;58330;51.888;11.052;2023-03-24T02:48:40;35.05;32.87;41.27;;
70740;Laerm;58330;51.888;11.052;2023-03-24T02:51:10;34.99;32.90;40.96;;
70740;Laerm;58330;51.888;11.052;2023-03-24T02:53:40;34.98;32.87;40.61;;
70740;Laerm;58330;51.888;11.052;2023-03-24T02:56:14;34.99;32.90;40.66;;
70740;Laerm;58330;51.888;11.052;2023-03-24T02:58:44;34.97;33.08;41.55;;
70740;Laerm;58330;51.888;11.052;2023-03-24T03:01:13;34.98;33.12;55.43;;
70740;Laerm;58330;51.888;11.052;2023-03-24T03:03:43;34.84;32.97;50.32;;
70740;Laerm;58330;51.888;11.052;2023-03-24T03:06:13;34.86;32.40;40.40;;
70740;Laerm;58330;51.888;11.052;2023-03-24T03:08:42;34.91;32.63;40.64;;
70740;Laerm;58330;51.888;11.052;2023-03-24T03:11:12;34.98;32.96;41.05;;
70740;Laerm;58330;51.888;11.052;2023-03-24T03:13:42;34.85;32.88;41.18;;
70740;Laerm;58330;51.888;11.052;2023-03-24T03:16:12;34.63;33.00;42.01;;
70740;Laerm;58330;51.888;11.052;2023-03-24T03:18:39;34.80;32.96;41.29;;
70740;Laerm;58330;51.888;11.052;2023-03-24T03:21:09;34.60;32.39;40.89;;
70740;Laerm;58330;51.888;11.052;2023-03-24T03:23:37;34.49;32.87;40.71;;
70740;Laerm;58330;51.888;11.052;2023-03-24T03:26:07;34.48;32.94;40.27;;
70740;Laerm;58330;51.888;11.052;2023-03-24T03:28:37;34.62;32.85;41.45;;
70740;Laerm;58330;51.888;11.052;2023-03-24T03:31:07;34.56;33.09;39.51;;
70740;Laerm;58330;51.888;11.052;2023-03-24T03:33:35;34.58;32.85;40.84;;
70740;Laerm;58330;51.888;11.052;2023-03-24T03:36:05;34.63;32.62;40.67;;
70740;Laerm;58330;51.888;11.052;2023-03-24T03:38:35;34.57;32.96;39.66;;
70740;Laerm;58330;51.888;11.052;2023-03-24T03:41:05;34.58;32.83;39.73;;
70740;Laerm;58330;51.888;11.052;2023-03-24T03:43:32;34.56;32.91;40.22;;
70740;Laerm;58330;51.888;11.052;2023-03-24T03:45:59;34.60;32.80;39.40;;
70740;Laerm;58330;51.888;11.052;2023-03-24T03:48:27;34.71;32.72;39.22;;
70740;Laerm;58330;51.888;11.052;2023-03-24T03:50:53;34.58;32.92;39.04;;
70740;Laerm;58330;51.888;11.052;2023-03-24T03:53:22;34.63;32.83;38.88;;
70740;Laerm;58330;51.888;11.052;2023-03-24T03:55:50;34.54;32.88;37.78;;
70740;Laerm;58330;51.888;11.052;2023-03-24T03:58:17;34.72;33.11;38.52;;
70740;Laerm;58330;51.888;11.052;2023-03-24T04:00:44;34.69;33.03;38.51;;
70740;Laerm;58330;51.888;11.052;2023-03-24T04:03:17;34.86;33.06;39.78;;
70740;Laerm;58330;51.888;11.052;2023-03-24T04:05:51;38.60;32.96;61.94;;
70740;Laerm;58330;51.888;11.052;2023-03-24T04:08:20;39.81;32.99;62.68;;
70740;Laerm;58330;51.888;11.052;2023-03-24T04:11:03;39.34;33.32;61.97;;
70740;Laerm;58330;51.888;11.052;2023-03-24T04:13:35;36.39;33.32;61.96;;
70740;Laerm;58330;51.888;11.052;2023-03-24T04:16:05;35.01;33.24;38.05;;
70740;Laerm;58330;51.888;11.052;2023-03-24T04:18:40;34.35;32.96;35.82;;
70740;Laerm;58330;51.888;11.052;2023-03-24T04:21:17;34.24;32.82;36.41;;
70740;Laerm;58330;51.888;11.052;2023-03-24T04:23:54;34.19;32.74;36.17;;
70740;Laerm;58330;51.888;11.052;2023-03-24T04:26:24;34.23;32.34;36.25;;
70740;Laerm;58330;51.888;11.052;2023-03-24T04:28:54;34.23;32.78;36.19;;
70740;Laerm;58330;51.888;11.052;2023-03-24T04:31:24;34.23;32.81;37.49;;
70740;Laerm;58330;51.888;11.052;2023-03-24T04:33:52;34.27;32.69;38.32;;
70740;Laerm;58330;51.888;11.052;2023-03-24T04:36:25;34.37;32.64;39.52;;
70740;Laerm;58330;51.888;11.052;2023-03-24T04:38:53;34.49;32.79;38.70;;
70740;Laerm;58330;51.888;11.052;2023-03-24T04:41:21;34.34;32.84;37.69;;
70740;Laerm;58330;51.888;11.052;2023-03-24T04:43:49;34.42;32.89;37.44;;
70740;Laerm;58330;51.888;11.052;2023-03-24T04:46:16;34.47;32.69;37.41;;
70740;Laerm;58330;51.888;11.052;2023-03-24T04:48:43;34.55;32.84;49.61;;
70740;Laerm;58330;51.888;11.052;2023-03-24T04:51:12;34.66;32.84;37.86;;
70740;Laerm;58330;51.888;11.052;2023-03-24T04:53:40;34.62;32.89;37.80;;
70740;Laerm;58330;51.888;11.052;2023-03-24T04:56:12;34.61;32.80;38.40;;
70740;Laerm;58330;51.888;11.052;2023-03-24T04:58:42;34.78;33.02;37.83;;
70740;Laerm;58330;51.888;11.052;2023-03-24T05:01:08;34.79;32.96;38.01;;
70740;Laerm;58330;51.888;11.052;2023-03-24T05:03:34;34.76;32.84;37.86;;
70740;Laerm;58330;51.888;11.052;2023-03-24T05:06:02;35.35;32.93;62.09;;
70740;Laerm;58330;51.888;11.052;2023-03-24T05:08:29;34.72;32.94;37.40;;
70740;Laerm;58330;51.888;11.052;2023-03-24T05:10:57;34.70;33.22;37.56;;
70740;Laerm;58330;51.888;11.052;2023-03-24T05:13:24;34.77;33.35;37.44;;
70740;Laerm;58330;51.888;11.052;2023-03-24T05:15:51;34.60;32.95;37.30;;
70740;Laerm;58330;51.888;11.052;2023-03-24T05:18:17;34.57;33.00;37.28;;
70740;Laerm;58330;51.888;11.052;2023-03-24T05:20:44;34.61;33.13;36.82;;
70740;Laerm;58330;51.888;11.052;2023-03-24T05:23:10;34.62;33.22;36.91;;
70740;Laerm;58330;51.888;11.052;2023-03-24T05:25:36;34.48;32.92;36.48;;
70740;Laerm;58330;51.888;11.052;2023-03-24T05:28:04;34.48;32.86;36.48;;
70740;Laerm;58330;51.888;11.052;2023-03-24T05:30:31;34.44;32.87;36.59;;
70740;Laerm;58330;51.888;11.052;2023-03-24T05:32:57;34.37;33.13;36.49;;
70740;Laerm;58330;51.888;11.052;2023-03-24T05:35:23;34.40;32.86;36.18;;
70740;Laerm;58330;51.888;11.052;2023-03-24T05:37:50;34.36;32.85;36.54;;
70740;Laerm;58330;51.888;11.052;2023-03-24T05:40:16;34.38;33.15;36.37;;
70740;Laerm;58330;51.888;11.052;2023-03-24T05:42:43;34.37;32.94;36.37;;
70740;Laerm;58330;51.888;11.052;2023-03-24T05:45:11;34.37;32.89;36.31;;
70740;Laerm;58330;51.888;11.052;2023-03-24T05:47:37;34.33;33.02;36.09;;
70740;Laerm;58330;51.888;11.052;2023-03-24T05:50:03;34.34;32.89;36.65;;
70740;Laerm;58330;51.888;11.052;2023-03-24T05:52:30;34.37;32.77;37.75;;
70740;Laerm;58330;51.888;11.052;2023-03-24T05:54:57;34.39;32.91;36.53;;
70740;Laerm;58330;51.888;11.052;2023-03-24T05:57:23;34.43;33.10;36.93;;
70740;Laerm;58330;51.888;11.052;2023-03-24T05:59:49;34.51;33.00;37.40;;
70740;Laerm;58330;51.888;11.052;2023-03-24T06:02:18;34.45;33.05;36.90;;
70740;Laerm;58330;51.888;11.052;2023-03-24T06:04:45;34.44;32.87;36.73;;
70740;Laerm;58330;51.888;11.052;2023-03-24T06:07:13;34.53;32.91;36.93;;
70740;Laerm;58330;51.888;11.052;2023-03-24T06:09:40;34.59;33.01;37.31;;
70740;Laerm;58330;51.888;11.052;2023-03-24T06:12:10;34.52;32.88;43.24;;
70740;Laerm;58330;51.888;11.052;2023-03-24T06:14:37;34.55;33.03;37.45;;
70740;Laerm;58330;51.888;11.052;2023-03-24T06:17:05;34.53;32.80;37.40;;
70740;Laerm;58330;51.888;11.052;2023-03-24T06:19:33;34.53;32.86;37.54;;
70740;Laerm;58330;51.888;11.052;2023-03-24T06:22:02;34.56;32.87;43.29;;
70740;Laerm;58330;51.888;11.052;2023-03-24T06:24:30;34.83;33.13;39.15;;
70740;Laerm;58330;51.888;11.052;2023-03-24T06:26:56;37.88;33.03;61.31;;
70740;Laerm;58330;51.888;11.052;2023-03-24T06:29:26;35.25;32.99;39.02;;
70740;Laerm;58330;51.888;11.052;2023-03-24T06:31:53;35.80;33.71;40.55;;
70740;Laerm;58330;51.888;11.052;2023-03-24T06:34:19;36.67;33.96;40.59;;
70740;Laerm;58330;51.888;11.052;2023-03-24T06:36:47;36.66;34.30;43.53;;
70740;Laerm;58330;51.888;11.052;2023-03-24T06:39:15;35.84;33.58;40.10;;
70740;Laerm;58330;51.888;11.052;2023-03-24T06:41:43;35.72;33.40;40.24;;
70740;Laerm;58330;51.888;11.052;2023-03-24T06:44:09;35.81;33.44;39.98;;
70740;Laerm;58330;51.888;11.052;2023-03-24T06:46:36;35.62;33.00;39.98;;
70740;Laerm;58330;51.888;11.052;2023-03-24T06:49:02;35.05;33.11;38.61;;
70740;Laerm;58330;51.888;11.052;2023-03-24T06:51:29;34.61;33.02;37.48;;
70740;Laerm;58330;51.888;11.052;2023-03-24T06:53:56;34.43;32.79;36.64;;
70740;Laerm;58330;51.888;11.052;2023-03-24T06:56:23;34.40;32.93;37.42;;
70740;Laerm;58330;51.888;11.052;2023-03-24T06:58:51;34.32;32.93;36.40;;
70740;Laerm;58330;51.888;11.052;2023-03-24T07:01:17;34.41;33.01;36.22;;
70740;Laerm;58330;51.888;11.052;2023-03-24T07:03:44;34.46;33.02;36.47;;
70740;Laerm;58330;51.888;11.052;2023-03-24T07:06:12;34.35;32.90;36.15;;
70740;Laerm;58330;51.888;11.052;2023-03-24T07:08:38;34.40;33.05;36.27;;
70740;Laerm;58330;51.888;11.052;2023-03-24T07:11:06;34.29;32.97;35.99;;
70740;Laerm;58330;51.888;11.052;2023-03-24T07:13:34;34.33;32.66;37.11;;
70740;Laerm;58330;51.888;11.052;2023-03-24T07:16:00;34.24;32.97;36.21;;
70740;Laerm;58330;51.888;11.052;2023-03-24T07:18:26;34.27;32.97;35.60;;
70740;Laerm;58330;51.888;11.052;2023-03-24T07:20:53;34.23;32.94;36.03;;
70740;Laerm;58330;51.888;11.052;2023-03-24T07:23:19;34.28;32.97;35.63;;
70740;Laerm;58330;51.888;11.052;2023-03-24T07:25:46;34.30;32.95;35.78;;
70740;Laerm;58330;51.888;11.052;2023-03-24T07:28:13;34.43;32.89;35.93;;
70740;Laerm;58330;51.888;11.052;2023-03-24T07:30:40;34.46;33.12;35.62;;
70740;Laerm;58330;51.888;11.052;2023-03-24T07:33:07;34.65;33.22;35.90;;
70740;Laerm;58330;51.888;11.052;2023-03-24T07:35:36;34.90;33.31;36.38;;
70740;Laerm;58330;51.888;11.052;2023-03-24T07:38:02;34.86;33.35;36.64;;
70740;Laerm;58330;51.888;11.052;2023-03-24T07:40:29;34.60;33.03;35.99;;
70740;Laerm;58330;51.888;11.052;2023-03-24T07:42:57;34.61;33.19;47.05;;
70740;Laerm;58330;51.888;11.052;2023-03-24T07:45:26;34.37;32.80;37.50;;
70740;Laerm;58330;51.888;11.052;2023-03-24T07:47:52;34.52;33.03;36.67;;
70740;Laerm;58330;51.888;11.052;2023-03-24T07:50:21;34.57;33.12;36.29;;
70740;Laerm;58330;51.888;11.052;2023-03-24T07:52:48;34.73;33.17;36.37;;
70740;Laerm;58330;51.888;11.052;2023-03-24T07:55:15;34.39;32.78;36.01;;
70740;Laerm;58330;51.888;11.052;2023-03-24T07:57:41;34.43;32.92;36.16;;
70740;Laerm;58330;51.888;11.052;2023-03-24T08:00:10;34.59;33.03;36.18;;
70740;Laerm;58330;51.888;11.052;2023-03-24T08:02:41;34.60;32.82;36.28;;
70740;Laerm;58330;51.888;11.052;2023-03-24T08:05:07;34.41;32.83;35.96;;
70740;Laerm;58330;51.888;11.052;2023-03-24T08:07:37;34.59;32.95;36.25;;
70740;Laerm;58330;51.888;11.052;2023-03-24T08:10:07;34.50;32.87;36.33;;
70740;Laerm;58330;51.888;11.052;2023-03-24T08:12:33;34.45;33.03;36.03;;
70740;Laerm;58330;51.888;11.052;2023-03-24T08:15:00;34.89;33.19;36.68;;
70740;Laerm;58330;51.888;11.052;2023-03-24T08:17:26;35.58;33.53;38.67;;
70740;Laerm;58330;51.888;11.052;2023-03-24T08:19:55;35.97;34.21;38.67;;
70740;Laerm;58330;51.888;11.052;2023-03-24T08:22:21;35.96;33.56;38.27;;
70740;Laerm;58330;51.888;11.052;2023-03-24T08:24:47;37.90;35.19;40.21;;
70740;Laerm;58330;51.888;11.052;2023-03-24T08:27:14;36.52;32.80;40.61;;
70740;Laerm;58330;51.888;11.052;2023-03-24T08:29:41;34.19;32.88;35.84;;
70740;Laerm;58330;51.888;11.052;2023-03-24T08:32:07;34.11;32.81;35.23;;
70740;Laerm;58330;51.888;11.052;2023-03-24T08:34:34;34.06;32.80;36.09;;
70740;Laerm;58330;51.888;11.052;2023-03-24T08:37:01;34.16;32.54;37.96;;
70740;Laerm;58330;51.888;11.052;2023-03-24T08:39:28;34.10;32.61;35.90;;
70740;Laerm;58330;51.888;11.052;2023-03-24T08:41:56;34.58;32.87;36.53;;
70740;Laerm;58330;51.888;11.052;2023-03-24T08:44:23;35.91;33.81;38.30;;
70740;Laerm;58330;51.888;11.052;2023-03-24T08:46:49;35.04;33.38;36.98;;
70740;Laerm;58330;51.888;11.052;2023-03-24T08:49:16;35.25;33.48;37.11;;
70740;Laerm;58330;51.888;11.052;2023-03-24T08:51:42;35.05;33.39;36.61;;
70740;Laerm;58330;51.888;11.052;2023-03-24T08:54:10;35.09;33.50;36.72;;
70740;Laerm;58330;51.888;11.052;2023-03-24T08:56:37;35.25;33.40;37.15;;
70740;Laerm;58330;51.888;11.052;2023-03-24T08:59:04;35.61;33.62;38.03;;
70740;Laerm;58330;51.888;11.052;2023-03-24T09:01:30;35.32;33.16;38.51;;
70740;Laerm;58330;51.888;11.052;2023-03-24T09:03:58;34.60;33.13;36.05;;
70740;Laerm;58330;51.888;11.052;2023-03-24T09:06:24;36.26;33.16;40.17;;
70740;Laerm;58330;51.888;11.052;2023-03-24T09:08:52;39.63;37.05;41.38;;
70740;Laerm;58330;51.888;11.052;2023-03-24T09:11:20;38.80;35.31;41.06;;
70740;Laerm;58330;51.888;11.052;2023-03-24T09:13:47;39.30;35.87;41.77;;
70740;Laerm;58330;51.888;11.052;2023-03-24T09:16:14;40.74;36.07;42.12;;
70740;Laerm;58330;51.888;11.052;2023-03-24T09:18:41;41.07;37.77;42.62;;
70740;Laerm;58330;51.888;11.052;2023-03-24T09:21:08;37.34;32.99;41.21;;
70740;Laerm;58330;51.888;11.052;2023-03-24T09:23:35;34.25;32.81;35.93;;
70740;Laerm;58330;51.888;11.052;2023-03-24T09:26:02;34.28;32.75;35.56;;
70740;Laerm;58330;51.888;11.052;2023-03-24T09:28:30;34.94;33.02;38.78;;
70740;Laerm;58330;51.888;11.052;2023-03-24T09:30:56;37.59;33.41;41.91;;
70740;Laerm;58330;51.888;11.052;2023-03-24T09:33:23;36.47;32.65;43.59;;
70740;Laerm;58330;51.888;11.052;2023-03-24T09:35:55;33.62;32.01;34.77;;
70740;Laerm;58330;51.888;11.052;2023-03-24T09:38:22;36.02;32.22;41.56;;
70740;Laerm;58330;51.888;11.052;2023-03-24T09:40:50;42.58;40.33;44.24;;
70740;Laerm;58330;51.888;11.052;2023-03-24T09:43:21;43.91;42.96;44.71;;
70740;Laerm;58330;51.888;11.052;2023-03-24T09:45:52;34.67;31.97;44.94;;
70740;Laerm;58330;51.888;11.052;2023-03-24T09:48:24;33.41;32.06;34.67;;
70740;Laerm;58330;51.888;11.052;2023-03-24T09:50:53;33.85;31.77;39.08;;
70740;Laerm;58330;51.888;11.052;2023-03-24T09:53:25;33.74;32.02;39.69;;
70740;Laerm;58330;51.888;11.052;2023-03-24T09:55:55;33.40;31.82;38.08;;
70740;Laerm;58330;51.888;11.052;2023-03-24T09:58:23;33.25;31.86;34.52;;
70740;Laerm;58330;51.888;11.052;2023-03-24T10:00:56;33.26;32.03;34.55;;
70740;Laerm;58330;51.888;11.052;2023-03-24T10:03:22;33.26;31.83;34.52;;
70740;Laerm;58330;51.888;11.052;2023-03-24T10:05:50;33.28;31.94;34.52;;
70740;Laerm;58330;51.888;11.052;2023-03-24T10:08:20;33.27;31.91;34.59;;
70740;Laerm;58330;51.888;11.052;2023-03-24T10:10:56;33.26;31.90;36.52;;
70740;Laerm;58330;51.888;11.052;2023-03-24T10:13:26;33.22;31.97;34.97;;
70740;Laerm;58330;51.888;11.052;2023-03-24T10:16:00;33.27;31.89;34.52;;
70740;Laerm;58330;51.888;11.052;2023-03-24T10:18:29;33.24;31.89;36.67;;
70740;Laerm;58330;51.888;11.052;2023-03-24T10:23:44;33.39;31.80;43.20;;
70740;Laerm;58330;51.888;11.052;2023-03-24T10:26:17;33.23;31.90;34.45;;
70740;Laerm;58330;51.888;11.052;2023-03-24T10:28:49;33.17;31.74;34.43;;
70740;Laerm;58330;51.888;11.052;2023-03-24T10:31:19;33.22;31.69;34.74;;
70740;Laerm;58330;51.888;11.052;2023-03-24T10:33:48;33.18;31.80;34.81;;
70740;Laerm;58330;51.888;11.052;2023-03-24T10:36:16;33.20;31.90;35.77;;
70740;Laerm;58330;51.888;11.052;2023-03-24T10:38:43;33.12;31.77;35.94;;
70740;Laerm;58330;51.888;11.052;2023-03-24T10:41:12;33.05;31.59;34.24;;
70740;Laerm;58330;51.888;11.052;2023-03-24T10:43:40;33.03;31.71;34.25;;
70740;Laerm;58330;51.888;11.052;2023-03-24T10:46:08;32.96;31.63;34.28;;
70740;Laerm;58330;51.888;11.052;2023-03-24T10:48:42;32.94;31.33;34.19;;
70740;Laerm;58330;51.888;11.052;2023-03-24T10:51:13;32.99;31.72;34.58;;
70740;Laerm;58330;51.888;11.052;2023-03-24T10:53:41;33.03;31.67;34.31;;
70740;Laerm;58330;51.888;11.052;2023-03-24T10:56:08;33.03;31.77;34.57;;
70740;Laerm;58330;51.888;11.052;2023-03-24T10:58:38;32.91;31.50;34.25;;
70740;Laerm;58330;51.888;11.052;2023-03-24T11:01:07;32.84;31.14;34.15;;
70740;Laerm;58330;51.888;11.052;2023-03-24T11:03:35;32.88;31.50;34.75;;
70740;Laerm;58330;51.888;11.052;2023-03-24T11:06:04;32.85;31.46;34.26;;
70740;Laerm;58330;51.888;11.052;2023-03-24T11:08:32;32.86;31.20;34.94;;
70740;Laerm;58330;51.888;11.052;2023-03-24T11:10:59;32.73;31.27;34.19;;
70740;Laerm;58330;51.888;11.052;2023-03-24T11:13:27;33.02;31.39;34.67;;
70740;Laerm;58330;51.888;11.052;2023-03-24T11:15:55;33.05;31.57;35.95;;
70740;Laerm;58330;51.888;11.052;2023-03-24T11:18:23;32.93;31.58;38.45;;
70740;Laerm;58330;51.888;11.052;2023-03-24T11:20:51;32.70;31.29;38.37;;
70740;Laerm;58330;51.888;11.052;2023-03-24T11:23:20;32.55;31.03;36.28;;
70740;Laerm;58330;51.888;11.052;2023-03-24T11:25:52;32.43;30.88;36.34;;
70740;Laerm;58330;51.888;11.052;2023-03-24T11:28:19;32.22;30.84;34.65;;
70740;Laerm;58330;51.888;11.052;2023-03-24T11:30:47;32.20;30.79;36.53;;
70740;Laerm;58330;51.888;11.052;2023-03-24T11:33:19;32.28;30.72;38.03;;
70740;Laerm;58330;51.888;11.052;2023-03-24T11:35:46;32.24;30.94;33.65;;
70740;Laerm;58330;51.888;11.052;2023-03-24T11:38:14;32.21;30.97;33.63;;
70740;Laerm;58330;51.888;11.052;2023-03-24T11:40:46;32.09;30.61;34.16;;
70740;Laerm;58330;51.888;11.052;2023-03-24T11:43:18;32.18;30.68;34.46;;
70740;Laerm;58330;51.888;11.052;2023-03-24T11:45:45;32.16;30.75;35.50;;
70740;Laerm;58330;51.888;11.052;2023-03-24T11:48:21;32.02;30.71;34.07;;
70740;Laerm;58330;51.888;11.052;2023-03-24T11:50:50;31.98;30.55;33.28;;
70740;Laerm;58330;51.888;11.052;2023-03-24T11:53:18;32.05;30.70;33.37;;
70740;Laerm;58330;51.888;11.052;2023-03-24T11:55:49;32.18;30.87;36.74;;
70740;Laerm;58330;51.888;11.052;2023-03-24T11:58:19;32.07;30.68;34.49;;
70740;Laerm;58330;51.888;11.052;2023-03-24T12:00:53;32.18;30.60;34.43;;
70740;Laerm;58330;51.888;11.052;2023-03-24T12:06:05;32.02;30.30;34.25;;
70740;Laerm;58330;51.888;11.052;2023-03-24T12:08:39;32.04;30.75;33.29;;
70740;Laerm;58330;51.888;11.052;2023-03-24T12:11:13;32.04;30.31;34.26;;
70740;Laerm;58330;51.888;11.052;2023-03-24T12:13:40;32.04;30.66;33.73;;
70740;Laerm;58330;51.888;11.052;2023-03-24T12:16:14;32.19;30.79;44.05;;
70740;Laerm;58330;51.888;11.052;2023-03-24T12:18:45;32.14;30.88;35.13;;
70740;Laerm;58330;51.888;11.052;2023-03-24T12:21:18;32.19;30.77;36.55;;
70740;Laerm;58330;51.888;11.052;2023-03-24T12:23:55;32.09;30.46;33.60;;
70740;Laerm;58330;51.888;11.052;2023-03-24T12:26:24;32.17;30.75;35.53;;
70740;Laerm;58330;51.888;11.052;2023-03-24T12:29:01;32.13;30.88;33.72;;
70740;Laerm;58330;51.888;11.052;2023-03-24T12:34:25;32.23;30.88;34.89;;
70740;Laerm;58330;51.888;11.052;2023-03-24T12:36:58;32.27;30.72;34.93;;
70740;Laerm;58330;51.888;11.052;2023-03-24T12:39:29;32.29;30.85;33.86;;
70740;Laerm;58330;51.888;11.052;2023-03-24T12:42:07;32.33;31.15;33.97;;
70740;Laerm;58330;51.888;11.052;2023-03-24T12:44:44;32.40;31.00;34.52;;
70740;Laerm;58330;51.888;11.052;2023-03-24T12:47:18;32.45;31.05;33.84;;
70740;Laerm;58330;51.888;11.052;2023-03-24T12:49:51;32.50;31.01;34.89;;
70740;Laerm;58330;51.888;11.052;2023-03-24T12:52:24;32.48;31.11;33.71;;
70740;Laerm;58330;51.888;11.052;2023-03-24T12:54:57;32.47;31.11;33.77;;
70740;Laerm;58330;51.888;11.052;2023-03-24T12:57:33;32.54;31.20;34.17;;
70740;Laerm;58330;51.888;11.052;2023-03-24T13:00:02;32.45;31.15;33.65;;
70740;Laerm;58330;51.888;11.052;2023-03-24T13:02:31;32.48;31.25;33.90;;
70740;Laerm;58330;51.888;11.052;2023-03-24T13:04:59;32.58;30.98;34.90;;
70740;Laerm;58330;51.888;11.052;2023-03-24T13:07:29;32.50;31.14;33.87;;
70740;Laerm;58330;51.888;11.052;2023-03-24T13:09:59;32.51;31.22;34.03;;
70740;Laerm;58330;51.888;11.052;2023-03-24T13:12:30;32.58;31.23;34.53;;
70740;Laerm;58330;51.888;11.052;2023-03-24T13:15:02;32.47;31.07;36.48;;
70740;Laerm;58330;51.888;11.052;2023-03-24T13:17:32;32.41;31.26;33.82;;
70740;Laerm;58330;51.888;11.052;2023-03-24T13:20:02;32.39;30.92;33.89;;
70740;Laerm;58330;51.888;11.052;2023-03-24T13:22:32;32.30;31.02;33.70;;
70740;Laerm;58330;51.888;11.052;2023-03-24T13:24:59;32.38;31.01;34.01;;
70740;Laerm;58330;51.888;11.052;2023-03-24T13:27:27;32.26;30.90;33.66;;
70740;Laerm;58330;51.888;11.052;2023-03-24T13:30:05;32.21;30.57;33.94;;
70740;Laerm;58330;51.888;11.052;2023-03-24T13:32:40;32.13;30.78;33.94;;
70740;Laerm;58330;51.888;11.052;2023-03-24T13:35:11;32.23;30.90;34.13;;
70740;Laerm;58330;51.888;11.052;2023-03-24T13:37:39;32.18;30.83;34.03;;
70740;Laerm;58330;51.888;11.052;2023-03-24T13:40:08;32.09;30.43;34.63;;
70740;Laerm;58330;51.888;11.052;2023-03-24T13:42:36;32.07;30.66;33.50;;
70740;Laerm;58330;51.888;11.052;2023-03-24T13:45:17;32.10;30.63;33.81;;
70740;Laerm;58330;51.888;11.052;2023-03-24T13:47:47;32.19;30.69;37.77;;
70740;Laerm;58330;51.888;11.052;2023-03-24T13:50:14;32.32;30.38;48.88;;
70740;Laerm;58330;51.888;11.052;2023-03-24T13:52:42;32.15;30.72;33.67;;
70740;Laerm;58330;51.888;11.052;2023-03-24T13:55:12;32.11;30.80;33.70;;
70740;Laerm;58330;51.888;11.052;2023-03-24T13:57:39;32.13;30.77;33.36;;